Time;durP1;ratioP1;P1;durP2;ratioP2;P2;SDS_P1;SDS_P2;PMS_P1;PMS_P2;Temp;Humidity;BMP_temperature;BMP_pressure;BME280_temperature;BME280_humidity;BME280_pressure;Samples;Min_cycle;Max_cycle;Signal;HPM_P1;HPM_P2
2023/01/11 00:00:25;;;;;;;4.00;3.60;;;7.70;99.90;;;;;;5091616;28;20243;-78
2023/01/11 00:02:56;;;;;;;3.17;2.80;;;7.80;99.90;;;;;;5090956;28;20224;-76
2023/01/11 00:05:23;;;;;;;5.53;3.78;;;7.80;99.90;;;;;;5086032;28;20210;-80
2023/01/11 00:07:51;;;;;;;3.78;3.05;;;7.90;99.90;;;;;;5094249;28;20217;-77
2023/01/11 00:10:18;;;;;;;5.43;4.13;;;7.80;99.90;;;;;;5090890;28;20639;-78
2023/01/11 00:12:45;;;;;;;4.90;2.65;;;7.80;99.90;;;;;;5091281;28;20567;-78
2023/01/11 00:15:13;;;;;;;4.65;3.15;;;7.80;99.90;;;;;;5094127;28;20294;-79
2023/01/11 00:17:41;;;;;;;6.13;3.50;;;7.90;99.90;;;;;;5087701;28;20746;-77
2023/01/11 00:20:11;;;;;;;11.85;4.03;;;8.00;99.90;;;;;;5085047;28;20210;-79
2023/01/11 00:22:37;;;;;;;4.75;3.00;;;8.00;99.90;;;;;;5087098;28;20244;-78
2023/01/11 00:25:05;;;;;;;5.10;3.85;;;7.90;99.90;;;;;;5087482;28;20282;-79
2023/01/11 00:27:32;;;;;;;3.00;2.50;;;8.00;99.90;;;;;;5092548;28;20309;-79
2023/01/11 00:29:59;;;;;;;3.10;2.78;;;8.00;99.90;;;;;;5086036;28;20286;-80
2023/01/11 00:32:26;;;;;;;3.90;3.10;;;8.00;99.90;;;;;;5090610;28;20208;-79
2023/01/11 00:34:53;;;;;;;6.82;3.97;;;8.00;99.90;;;;;;5088858;28;20575;-78
2023/01/11 00:37:22;;;;;;;6.65;3.83;;;8.10;99.90;;;;;;5092408;28;20242;-78
2023/01/11 00:39:50;;;;;;;8.70;3.50;;;8.00;99.90;;;;;;5080657;28;20333;-76
2023/01/11 00:47:59;;;;;;;3.85;2.72;;;8.20;99.90;;;;;;5081088;28;20213;-79
2023/01/11 00:50:27;;;;;;;5.95;3.22;;;8.30;99.90;;;;;;5088938;28;20210;-77
2023/01/11 00:52:56;;;;;;;3.58;3.10;;;8.30;99.90;;;;;;5090908;28;20204;-79
2023/01/11 00:55:23;;;;;;;6.80;3.13;;;8.30;99.90;;;;;;5093835;28;20194;-77
2023/01/11 00:57:50;;;;;;;3.60;2.88;;;8.40;99.90;;;;;;5088129;28;20241;-78
2023/01/11 01:00:18;;;;;;;4.75;3.40;;;8.40;99.90;;;;;;5090106;28;20201;-79
2023/01/11 01:02:45;;;;;;;5.25;4.15;;;8.40;99.90;;;;;;5088951;28;20708;-77
2023/01/11 01:05:12;;;;;;;3.75;3.10;;;8.40;99.90;;;;;;5084646;28;20595;-80
2023/01/11 01:07:39;;;;;;;3.53;3.13;;;8.50;99.90;;;;;;5083552;28;20226;-78
2023/01/11 01:10:10;;;;;;;4.43;3.50;;;8.30;99.90;;;;;;5087982;28;20285;-78
2023/01/11 01:15:22;;;;;;;6.32;3.60;;;8.40;99.90;;;;;;5087931;28;20212;-78
2023/01/11 01:17:49;;;;;;;8.27;3.95;;;8.40;99.90;;;;;;5087277;28;20263;-76
2023/01/11 01:20:16;;;;;;;6.82;4.10;;;8.50;99.90;;;;;;5089443;28;20235;-77
2023/01/11 01:22:43;;;;;;;4.88;3.85;;;8.40;99.90;;;;;;5085395;28;20309;-78
2023/01/11 01:25:11;;;;;;;5.30;3.95;;;8.40;99.90;;;;;;5092584;28;20243;-81
2023/01/11 01:27:38;;;;;;;4.25;3.72;;;8.50;99.90;;;;;;5081745;28;20305;-78
2023/01/11 01:30:08;;;;;;;6.45;3.60;;;8.40;99.90;;;;;;5081718;28;20203;-80
2023/01/11 01:32:34;;;;;;;4.38;3.75;;;8.60;99.90;;;;;;5089551;28;20289;-79
2023/01/11 01:35:01;;;;;;;7.22;3.80;;;8.60;99.90;;;;;;5082262;28;20205;-79
2023/01/11 01:37:28;;;;;;;7.20;3.42;;;8.60;99.90;;;;;;5085284;28;20221;-79
2023/01/11 01:39:55;;;;;;;4.75;3.45;;;8.60;99.90;;;;;;5083928;28;20226;-80
2023/01/11 01:42:24;;;;;;;4.85;3.10;;;8.70;99.90;;;;;;5089957;28;20732;-78
2023/01/11 01:45:03;;;;;;;6.30;4.15;;;8.60;99.90;;;;;;5085675;28;20260;-81
2023/01/11 01:47:50;;;;;;;6.75;4.38;;;8.60;99.90;;;;;;5067231;28;20328;-79
2023/01/11 01:50:21;;;;;;;5.45;3.58;;;8.70;99.90;;;;;;5086768;28;20301;-79
2023/01/11 01:52:53;;;;;;;4.72;3.83;;;8.70;99.90;;;;;;5085959;28;20600;-79
2023/01/11 01:55:26;;;;;;;3.90;3.40;;;8.70;99.90;;;;;;5088103;28;20203;-79
2023/01/11 01:57:56;;;;;;;6.80;4.32;;;8.70;99.90;;;;;;5092862;28;20555;-77
2023/01/11 02:00:24;;;;;;;9.10;5.07;;;8.70;99.90;;;;;;5091333;28;20598;-79
2023/01/11 02:02:51;;;;;;;5.07;4.53;;;8.60;99.90;;;;;;5092184;28;20285;-80
2023/01/11 02:05:18;;;;;;;4.80;4.25;;;8.60;99.90;;;;;;5089508;28;20207;-79
2023/01/11 02:07:47;;;;;;;13.02;5.07;;;8.60;99.90;;;;;;5092726;28;20661;-80
2023/01/11 02:10:16;;;;;;;4.60;4.20;;;8.70;99.90;;;;;;5089075;28;20290;-79
2023/01/11 02:12:48;;;;;;;6.22;4.40;;;8.70;99.90;;;;;;5085171;28;20201;-80
2023/01/11 02:15:18;;;;;;;5.40;4.90;;;8.70;99.90;;;;;;5091675;28;20289;-81
2023/01/11 02:17:45;;;;;;;4.65;4.25;;;8.80;99.90;;;;;;5091658;28;20699;-78
2023/01/11 02:20:34;;;;;;;5.95;4.88;;;8.70;99.90;;;;;;5089203;28;20288;-77
2023/01/11 02:23:27;;;;;;;6.05;5.45;;;8.70;99.90;;;;;;5089195;28;20313;-79
2023/01/11 02:56:14;;;;;;;4.72;4.35;;;9.10;99.90;;;;;;4980033;28;20205;-86
2023/01/11 03:02:17;;;;;;;4.40;4.10;;;9.20;99.90;;;;;;5047866;28;20176;-86
2023/01/11 04:23:00;;;;;;;5.30;4.75;;;9.40;99.90;;;;;;5054274;28;20337;-86
2023/01/11 04:39:49;;;;;;;7.35;4.72;;;9.50;99.90;;;;;;5050319;28;20186;-86
2023/01/11 04:56:35;;;;;;;5.57;4.97;;;9.70;99.90;;;;;;5056004;28;20224;-87
2023/01/11 06:30:24;;;;;;;7.55;6.68;;;10.20;99.90;;;;;;5012091;28;20220;-88
2023/01/11 06:32:51;;;;;;;7.32;6.43;;;10.20;99.90;;;;;;5021799;28;20280;-86
2023/01/11 06:35:19;;;;;;;8.13;7.30;;;10.20;99.90;;;;;;5069919;28;20191;-87
2023/01/11 06:37:46;;;;;;;7.28;6.57;;;10.30;99.90;;;;;;5065876;28;20223;-86
2023/01/11 06:43:13;;;;;;;8.70;7.75;;;10.30;99.90;;;;;;4996443;28;20209;-85
2023/01/11 06:45:44;;;;;;;7.82;7.13;;;10.30;99.90;;;;;;5073430;28;20214;-86
2023/01/11 06:48:46;;;;;;;8.52;7.55;;;10.30;99.90;;;;;;5078710;28;20205;-87
2023/01/11 06:51:57;;;;;;;8.00;6.90;;;10.30;99.90;;;;;;5074943;28;20196;-88
2023/01/11 06:54:24;;;;;;;10.70;7.75;;;10.40;99.90;;;;;;5073074;28;20214;-87
2023/01/11 06:56:51;;;;;;;9.02;7.90;;;10.30;99.90;;;;;;5102426;22;20289;-81
2023/01/11 06:59:18;;;;;;;11.43;7.88;;;10.30;99.90;;;;;;5056707;28;20262;-85
2023/01/11 07:01:48;;;;;;;9.20;8.27;;;10.30;99.90;;;;;;5055473;28;20582;-82
2023/01/11 07:04:15;;;;;;;9.70;7.93;;;10.30;99.90;;;;;;5056942;28;20224;-82
2023/01/11 07:06:42;;;;;;;9.43;8.43;;;10.30;99.90;;;;;;5058551;28;20690;-82
2023/01/11 07:09:09;;;;;;;9.80;8.80;;;10.30;99.90;;;;;;5057523;28;20228;-81
2023/01/11 07:11:38;;;;;;;10.50;8.20;;;10.40;99.90;;;;;;5056235;28;20578;-79
2023/01/11 07:14:04;;;;;;;9.55;8.00;;;10.50;99.90;;;;;;5060149;28;20268;-78
2023/01/11 07:16:32;;;;;;;9.88;8.52;;;10.40;99.90;;;;;;5052737;28;20247;-81
2023/01/11 07:19:00;;;;;;;9.45;8.30;;;10.40;99.90;;;;;;5054619;28;20207;-82
2023/01/11 07:21:27;;;;;;;8.95;7.60;;;10.40;99.90;;;;;;5062320;28;20575;-82
2023/01/11 07:23:54;;;;;;;11.45;9.82;;;10.50;99.90;;;;;;5063888;28;20333;-82
2023/01/11 07:26:20;;;;;;;10.30;8.82;;;10.50;99.90;;;;;;5055553;28;20316;-82
2023/01/11 07:28:47;;;;;;;12.30;9.93;;;10.50;99.90;;;;;;5055166;28;20236;-82
2023/01/11 07:31:14;;;;;;;11.93;9.95;;;10.50;99.90;;;;;;5055497;28;20203;-84
2023/01/11 07:33:41;;;;;;;11.95;10.50;;;10.50;99.90;;;;;;5051170;28;20618;-82
2023/01/11 07:36:10;;;;;;;12.88;9.85;;;10.50;99.90;;;;;;5058850;28;20279;-83
2023/01/11 07:38:37;;;;;;;11.68;10.00;;;10.50;99.90;;;;;;5061875;28;20214;-80
2023/01/11 07:43:10;;;;;;;12.10;9.60;;;10.50;99.90;;;;;;5054010;28;20207;-81
2023/01/11 07:43:51;;;;;;;11.02;9.65;;;10.50;99.90;;;;;;5059933;28;20227;-84
2023/01/11 07:46:17;;;;;;;14.23;11.37;;;10.30;99.90;;;;;;5063225;28;20265;-82
2023/01/11 07:48:44;;;;;;;13.10;10.80;;;10.50;99.90;;;;;;5064124;28;20884;-81
2023/01/11 07:51:15;;;;;;;11.68;9.93;;;10.50;99.90;;;;;;5055638;28;20251;-80
2023/01/11 07:53:42;;;;;;;12.73;10.75;;;10.60;99.90;;;;;;5054615;28;20236;-84
2023/01/11 07:56:10;;;;;;;14.55;11.98;;;10.60;99.90;;;;;;5060460;28;20242;-85
2023/01/11 07:58:37;;;;;;;12.27;10.38;;;10.60;99.90;;;;;;5058387;28;20217;-84
2023/01/11 08:01:04;;;;;;;16.00;11.43;;;10.60;99.90;;;;;;5059261;28;20284;-87
2023/01/11 08:03:31;;;;;;;8.32;7.53;;;10.60;99.90;;;;;;5056272;28;20224;-82
2023/01/11 08:05:58;;;;;;;7.85;5.95;;;10.60;99.90;;;;;;5058746;28;20316;-81
2023/01/11 08:08:26;;;;;;;12.20;4.80;;;10.60;99.90;;;;;;5057815;28;20197;-78
2023/01/11 08:16:18;;;;;;;7.68;2.92;;;10.30;99.90;;;;;;5053910;28;20226;-81
2023/01/11 08:18:46;;;;;;;7.78;3.67;;;10.40;99.90;;;;;;5053471;28;20290;-82
2023/01/11 08:21:12;;;;;;;4.68;2.90;;;10.60;99.90;;;;;;5063682;28;20240;-82
2023/01/11 08:26:07;;;;;;;10.30;4.20;;;10.50;99.90;;;;;;5059162;22;20229;-85
2023/01/11 08:28:33;;;;;;;12.77;5.40;;;10.50;99.90;;;;;;5042970;28;20209;-82
2023/01/11 08:31:06;;;;;;;7.78;3.05;;;10.50;99.90;;;;;;5048727;28;20595;-82
2023/01/11 08:33:33;;;;;;;6.75;2.65;;;10.50;99.90;;;;;;5051763;28;20213;-84
2023/01/11 08:36:05;;;;;;;3.80;2.50;;;10.30;99.90;;;;;;5050103;28;20239;-83
2023/01/11 08:38:32;;;;;;;6.72;2.97;;;10.50;99.90;;;;;;5058031;28;20215;-83
2023/01/11 08:40:59;;;;;;;6.78;3.40;;;10.50;99.90;;;;;;5053324;28;20204;-82
2023/01/11 08:43:27;;;;;;;5.60;2.67;;;10.40;99.90;;;;;;5051410;28;20249;-83
2023/01/11 08:45:54;;;;;;;9.77;3.10;;;10.30;99.90;;;;;;5068914;28;20281;-82
2023/01/11 08:48:21;;;;;;;4.72;2.65;;;10.30;99.90;;;;;;5053680;28;20173;-81
2023/01/11 08:50:47;;;;;;;8.00;3.50;;;10.20;99.90;;;;;;5061939;28;20217;-81
2023/01/11 08:53:14;;;;;;;6.82;2.85;;;10.30;99.90;;;;;;5056247;28;20186;-81
2023/01/11 08:55:43;;;;;;;5.00;2.90;;;10.30;99.90;;;;;;5052448;28;20225;-81
2023/01/11 08:58:10;;;;;;;13.25;3.95;;;10.30;99.90;;;;;;5061189;28;20227;-81
2023/01/11 09:00:38;;;;;;;8.05;3.90;;;10.30;99.90;;;;;;5054296;28;20198;-83
2023/01/11 09:03:05;;;;;;;9.23;3.65;;;10.40;99.90;;;;;;5056860;28;20209;-81
2023/01/11 09:05:32;;;;;;;8.32;3.75;;;10.60;99.90;;;;;;5049633;28;20289;-85
2023/01/11 09:07:59;;;;;;;6.93;3.90;;;10.70;99.90;;;;;;5054351;28;20210;-84
2023/01/11 09:10:26;;;;;;;3.75;3.20;;;10.70;99.90;;;;;;5053021;28;20194;-83
2023/01/11 09:12:53;;;;;;;6.43;4.47;;;10.90;99.90;;;;;;5049413;28;20426;-83
2023/01/11 09:15:20;;;;;;;12.80;5.15;;;10.80;99.90;;;;;;5040217;28;20227;-83
2023/01/11 09:17:49;;;;;;;7.45;5.07;;;10.90;99.90;;;;;;5050668;28;20231;-85
2023/01/11 09:20:17;;;;;;;5.60;4.55;;;10.90;99.90;;;;;;5051817;28;20238;-84
2023/01/11 09:22:46;;;;;;;9.18;4.45;;;10.90;99.90;;;;;;5046141;28;20280;-85
2023/01/11 09:25:13;;;;;;;9.25;4.63;;;10.90;99.90;;;;;;5043417;28;20290;-84
2023/01/11 09:27:43;;;;;;;9.90;4.85;;;10.90;99.90;;;;;;5039533;28;20203;-84
2023/01/11 09:30:11;;;;;;;18.65;6.22;;;11.00;99.90;;;;;;5040611;28;20226;-85
2023/01/11 09:32:38;;;;;;;12.25;5.25;;;10.90;99.90;;;;;;5030623;28;20400;-82
2023/01/11 09:35:08;;;;;;;8.40;6.07;;;10.90;99.90;;;;;;5045315;28;20282;-85
2023/01/11 09:37:40;;;;;;;8.00;3.90;;;10.80;99.90;;;;;;5043286;28;20704;-84
2023/01/11 09:40:12;;;;;;;6.55;3.78;;;10.90;99.90;;;;;;5038729;28;20283;-84
2023/01/11 09:42:41;;;;;;;6.47;4.32;;;10.90;99.90;;;;;;5039016;28;20689;-83
2023/01/11 09:45:14;;;;;;;4.90;4.40;;;10.90;99.90;;;;;;5042554;28;20289;-80
2023/01/11 09:47:46;;;;;;;5.20;3.92;;;11.00;99.90;;;;;;5049812;28;20209;-81
2023/01/11 09:50:20;;;;;;;9.07;5.45;;;11.20;99.90;;;;;;5034218;28;20206;-80
2023/01/11 09:52:51;;;;;;;10.15;5.75;;;11.20;99.90;;;;;;5042551;28;20213;-82
2023/01/11 09:55:24;;;;;;;6.70;4.05;;;11.20;99.90;;;;;;5048415;28;20215;-86
2023/01/11 09:58:09;;;;;;;9.65;5.90;;;11.30;99.90;;;;;;5033819;28;20242;-85
2023/01/11 10:00:50;;;;;;;7.80;5.55;;;11.30;99.90;;;;;;5054526;28;20210;-83
2023/01/11 10:04:14;;;;;;;8.13;5.22;;;11.40;99.90;;;;;;5054620;28;20242;-81
2023/01/11 10:06:54;;;;;;;9.70;5.82;;;11.50;99.90;;;;;;5050839;28;20202;-84
2023/01/11 10:09:31;;;;;;;8.50;6.88;;;11.50;99.90;;;;;;5046866;28;20213;-84
2023/01/11 10:12:09;;;;;;;10.05;6.95;;;11.60;99.90;;;;;;5060336;28;20270;-83
2023/01/11 10:14:47;;;;;;;7.55;6.82;;;11.60;99.90;;;;;;5062742;28;20663;-84
2023/01/11 10:17:24;;;;;;;8.02;6.70;;;11.80;99.90;;;;;;5051587;28;20222;-83
2023/01/11 10:19:56;;;;;;;9.75;7.90;;;11.90;99.90;;;;;;5051512;28;20258;-87
2023/01/11 10:22:32;;;;;;;10.75;8.23;;;11.70;99.90;;;;;;5047050;28;20250;-85
2023/01/11 10:25:09;;;;;;;10.40;7.85;;;11.70;99.90;;;;;;5064022;28;20238;-86
2023/01/11 10:27:39;;;;;;;14.75;10.10;;;11.60;99.90;;;;;;5058668;28;20241;-85
2023/01/11 10:30:32;;;;;;;14.50;9.93;;;11.60;99.90;;;;;;5047554;28;20275;-85
2023/01/11 10:33:17;;;;;;;13.07;11.35;;;11.50;99.90;;;;;;5050072;28;20271;-86
2023/01/11 10:36:04;;;;;;;14.57;10.27;;;11.40;99.90;;;;;;5045209;28;20228;-85
2023/01/11 10:38:53;;;;;;;16.88;13.63;;;11.30;99.90;;;;;;5035816;28;20211;-84
2023/01/11 10:41:32;;;;;;;18.65;12.15;;;11.30;99.90;;;;;;5053100;28;20241;-82
2023/01/11 10:44:10;;;;;;;17.45;12.10;;;11.30;99.90;;;;;;5057157;28;20208;-81
2023/01/11 10:46:40;;;;;;;12.55;10.77;;;11.30;99.90;;;;;;5044052;28;20256;-81
2023/01/11 10:49:28;;;;;;;12.20;10.63;;;11.30;99.90;;;;;;5048988;28;20629;-86
2023/01/11 10:52:00;;;;;;;14.38;11.70;;;11.50;99.90;;;;;;5048182;28;20210;-81
2023/01/11 10:54:32;;;;;;;12.45;10.05;;;11.40;99.90;;;;;;5042914;28;20313;-82
2023/01/11 10:57:13;;;;;;;15.70;10.57;;;11.40;99.90;;;;;;5041993;28;20210;-83
2023/01/11 10:59:58;;;;;;;17.75;11.93;;;11.50;99.90;;;;;;5046533;28;20210;-85
2023/01/11 11:02:38;;;;;;;17.75;12.77;;;11.60;99.90;;;;;;5040443;28;20250;-83
2023/01/11 11:05:14;;;;;;;14.20;11.80;;;11.70;99.90;;;;;;5039969;28;20258;-83
2023/01/11 11:07:49;;;;;;;16.92;11.85;;;11.70;99.90;;;;;;5048460;28;20200;-84
2023/01/11 11:10:22;;;;;;;17.05;12.30;;;11.80;99.90;;;;;;5052065;28;20203;-83
2023/01/11 11:12:57;;;;;;;18.45;12.93;;;11.70;99.90;;;;;;5052793;28;20235;-82
2023/01/11 11:15:30;;;;;;;20.30;12.57;;;11.60;99.90;;;;;;5049269;28;20661;-83
2023/01/11 11:17:57;;;;;;;15.18;13.18;;;11.50;99.90;;;;;;5050201;28;20242;-84
2023/01/11 11:20:28;;;;;;;13.75;11.07;;;11.50;99.90;;;;;;5058815;28;20248;-82
2023/01/11 11:22:56;;;;;;;15.05;10.95;;;11.60;99.90;;;;;;5044142;28;20264;-78
2023/01/11 11:25:30;;;;;;;17.77;11.43;;;11.50;99.90;;;;;;5051043;28;20229;-80
2023/01/11 11:28:02;;;;;;;18.77;9.93;;;11.50;99.90;;;;;;5054068;28;20270;-85
2023/01/11 11:30:32;;;;;;;20.17;11.85;;;11.40;99.90;;;;;;5044758;28;20251;-86
2023/01/11 11:33:01;;;;;;;24.55;13.93;;;11.50;99.90;;;;;;5047422;28;20207;-86
2023/01/11 11:35:37;;;;;;;16.23;10.82;;;11.40;99.90;;;;;;5048396;28;20227;-85
2023/01/11 11:38:04;;;;;;;23.02;12.35;;;11.40;99.90;;;;;;5040576;28;20202;-83
2023/01/11 11:40:35;;;;;;;15.48;10.15;;;11.30;99.90;;;;;;5048465;28;20250;-84
2023/01/11 11:43:19;;;;;;;18.25;8.98;;;11.30;99.90;;;;;;5051478;28;20274;-83
2023/01/11 11:45:54;;;;;;;17.10;9.85;;;11.20;99.90;;;;;;5048830;28;20314;-82
2023/01/11 11:48:21;;;;;;;16.17;8.48;;;11.30;99.90;;;;;;5047414;28;20233;-80
2023/01/11 11:50:49;;;;;;;13.30;7.78;;;11.30;99.90;;;;;;5051300;28;20266;-84
2023/01/11 11:53:34;;;;;;;13.50;7.30;;;11.30;99.90;;;;;;5050696;28;20227;-81
2023/01/11 11:56:15;;;;;;;14.52;5.85;;;11.20;99.90;;;;;;5052494;28;20229;-84
2023/01/11 11:58:43;;;;;;;15.77;6.97;;;11.20;99.90;;;;;;5040726;28;20212;-82
2023/01/11 12:01:22;;;;;;;11.57;6.13;;;11.20;99.90;;;;;;5048152;28;20220;-81
2023/01/11 12:03:50;;;;;;;14.18;5.57;;;11.10;99.90;;;;;;5041029;28;20293;-85
2023/01/11 12:06:23;;;;;;;8.65;4.85;;;11.20;99.90;;;;;;5047887;28;20304;-79
2023/01/11 12:08:50;;;;;;;13.57;6.32;;;11.10;99.90;;;;;;5042434;28;20234;-83
2023/01/11 12:11:23;;;;;;;12.88;4.63;;;11.10;99.90;;;;;;5043988;28;20361;-82
2023/01/11 12:14:01;;;;;;;13.75;4.78;;;11.00;99.90;;;;;;5044827;28;20204;-83
2023/01/11 12:16:31;;;;;;;13.70;5.53;;;11.10;99.90;;;;;;5039827;28;20213;-82
2023/01/11 12:18:58;;;;;;;13.57;4.55;;;11.00;99.90;;;;;;5041273;28;20198;-83
2023/01/11 12:21:28;;;;;;;9.05;4.72;;;10.90;99.90;;;;;;5037436;28;20209;-82
2023/01/11 12:24:09;;;;;;;12.18;4.75;;;10.90;99.90;;;;;;5038800;28;20206;-81
2023/01/11 12:26:45;;;;;;;8.70;4.85;;;11.00;99.90;;;;;;5040868;28;20655;-84
2023/01/11 12:29:23;;;;;;;15.02;4.80;;;11.10;99.90;;;;;;5047733;28;20559;-80
2023/01/11 12:32:04;;;;;;;18.45;5.15;;;11.10;99.90;;;;;;5043814;28;20284;-85
2023/01/11 12:35:18;;;;;;;13.55;6.30;;;11.00;99.90;;;;;;5035552;28;20254;-81
2023/01/11 12:38:05;;;;;;;11.27;4.93;;;11.20;99.90;;;;;;4989113;28;20265;-81
2023/01/11 12:40:39;;;;;;;9.02;4.10;;;11.30;99.90;;;;;;5036812;28;20281;-84
2023/01/11 12:43:36;;;;;;;7.47;3.45;;;11.30;99.90;;;;;;5044893;28;20226;-83
2023/01/11 12:46:13;;;;;;;19.73;4.88;;;11.40;99.90;;;;;;5031344;28;20230;-80
2023/01/11 12:49:03;;;;;;;11.38;3.75;;;11.30;99.90;;;;;;5042772;28;20630;-81
2023/01/11 12:51:42;;;;;;;8.15;3.28;;;11.30;99.90;;;;;;5035782;28;20214;-82
2023/01/11 12:54:32;;;;;;;13.13;2.97;;;11.30;99.90;;;;;;5042707;28;20216;-85
2023/01/11 12:57:12;;;;;;;15.57;4.53;;;11.20;99.90;;;;;;5039559;28;20211;-82
2023/01/11 13:00:05;;;;;;;10.90;3.47;;;11.20;99.90;;;;;;5051209;28;20258;-84
2023/01/11 13:02:55;;;;;;;10.10;3.80;;;11.10;99.90;;;;;;5046467;28;20202;-82
2023/01/11 13:05:27;;;;;;;12.30;4.10;;;11.10;99.90;;;;;;5042487;28;20233;-82
2023/01/11 13:08:05;;;;;;;9.80;4.22;;;11.00;99.90;;;;;;5041993;28;20206;-83
2023/01/11 13:10:39;;;;;;;7.13;4.03;;;11.00;99.90;;;;;;5037353;28;20198;-81
2023/01/11 13:13:12;;;;;;;7.30;3.03;;;11.00;99.90;;;;;;5055605;28;20227;-83
2023/01/11 13:15:50;;;;;;;6.50;3.20;;;10.90;99.90;;;;;;5033045;28;20464;-84
2023/01/11 13:18:29;;;;;;;10.70;3.70;;;10.90;99.90;;;;;;5047132;28;20202;-79
2023/01/11 13:20:59;;;;;;;12.95;3.85;;;10.80;99.90;;;;;;5034647;28;20225;-83
2023/01/11 13:23:33;;;;;;;16.20;4.18;;;10.80;99.90;;;;;;5046576;28;20222;-83
2023/01/11 13:26:08;;;;;;;20.38;5.20;;;10.80;99.90;;;;;;5045277;28;20229;-82
2023/01/11 13:28:38;;;;;;;7.45;3.78;;;10.70;99.90;;;;;;5046957;28;20212;-81
2023/01/11 13:31:11;;;;;;;13.13;4.00;;;10.60;99.90;;;;;;5034566;28;20274;-82
2023/01/11 13:33:42;;;;;;;8.05;4.93;;;10.70;99.90;;;;;;5053396;28;20273;-79
2023/01/11 13:36:13;;;;;;;15.48;5.10;;;10.60;99.90;;;;;;5044555;28;20226;-81
2023/01/11 13:38:45;;;;;;;8.27;4.28;;;10.60;99.90;;;;;;5053883;28;20246;-82
2023/01/11 13:41:19;;;;;;;11.70;4.70;;;10.70;99.90;;;;;;5049706;28;20228;-80
2023/01/11 13:43:54;;;;;;;11.80;3.90;;;10.80;99.90;;;;;;5052759;28;20270;-82
2023/01/11 13:46:36;;;;;;;6.90;3.88;;;10.60;99.90;;;;;;5049576;28;20233;-82
2023/01/11 13:49:11;;;;;;;8.68;3.25;;;10.60;99.90;;;;;;5043523;28;20279;-83
2023/01/11 13:51:44;;;;;;;7.25;3.55;;;10.60;99.90;;;;;;5039817;28;20210;-83
2023/01/11 13:54:15;;;;;;;12.55;4.75;;;10.50;99.90;;;;;;5038172;28;20222;-82
2023/01/11 13:56:46;;;;;;;4.22;2.50;;;10.50;99.90;;;;;;5047415;28;20278;-83
2023/01/11 13:59:16;;;;;;;15.02;3.10;;;10.60;99.90;;;;;;5049246;28;20269;-80
2023/01/11 14:01:52;;;;;;;12.80;4.30;;;10.50;99.90;;;;;;5057669;28;20202;-82
2023/01/11 14:04:23;;;;;;;11.00;3.30;;;10.40;99.90;;;;;;5043920;28;20221;-82
2023/01/11 14:07:10;;;;;;;12.43;3.10;;;10.40;99.90;;;;;;5041241;28;20225;-81
2023/01/11 14:10:00;;;;;;;10.18;3.75;;;10.30;99.90;;;;;;5042732;28;20354;-83
2023/01/11 14:12:42;;;;;;;5.53;3.00;;;10.30;99.90;;;;;;5034737;28;20205;-84
2023/01/11 14:15:22;;;;;;;9.68;3.25;;;10.30;99.90;;;;;;5045647;28;20235;-83
2023/01/11 14:18:13;;;;;;;7.95;2.65;;;10.30;99.90;;;;;;5053354;28;20213;-79
2023/01/11 14:20:47;;;;;;;9.30;4.03;;;10.30;99.90;;;;;;5063411;28;20215;-78
2023/01/11 14:23:18;;;;;;;7.70;3.08;;;10.30;99.90;;;;;;5065978;28;20220;-78
2023/01/11 14:28:45;;;;;;;12.27;3.63;;;10.30;99.90;;;;;;3947949;26;20231;-89
2023/01/11 14:31:46;;;;;;;9.25;3.33;;;10.30;99.90;;;;;;5074343;28;20311;-87
2023/01/11 14:34:50;;;;;;;10.75;3.97;;;10.30;99.90;;;;;;5066022;28;20238;-87
2023/01/11 14:41:39;;;;;;;8.07;4.05;;;10.20;99.90;;;;;;4975572;28;20212;-86
2023/01/11 14:48:23;;;;;;;17.10;4.50;;;10.10;99.90;;;;;;4998577;28;20252;-88
2023/01/11 14:51:23;;;;;;;12.40;5.85;;;10.00;99.90;;;;;;5000304;28;20212;-87
2023/01/11 14:54:34;;;;;;;21.73;6.18;;;10.00;99.90;;;;;;5047950;28;20210;-88
2023/01/11 14:58:18;;;;;;;7.90;5.28;;;9.80;99.90;;;;;;5032380;28;20227;-87
2023/01/11 15:11:22;;;;;;;;;;;;;;;;;;;;;
2023/01/11 15:20:34;;;;;;;11.75;4.93;;;9.40;99.90;;;;;;5056687;28;20650;-88
2023/01/11 15:23:04;;;;;;;10.82;4.18;;;9.40;99.90;;;;;;5059144;28;20214;-87
2023/01/11 15:39:01;;;;;;;23.10;4.82;;;9.30;99.90;;;;;;4953905;28;20268;-87
2023/01/11 15:45:11;;;;;;;10.23;3.97;;;9.40;99.90;;;;;;4980024;28;20310;-88
2023/01/11 15:48:23;;;;;;;;;;;;;;;;;;;;;
2023/01/11 15:58:24;;;;;;;9.77;3.72;;;9.50;99.90;;;;;;4865542;29;20238;-88
2023/01/11 16:01:53;;;;;;;14.18;3.20;;;9.50;99.90;;;;;;4890794;29;20224;-87
2023/01/11 16:36:23;;;;;;;13.68;4.03;;;9.30;99.90;;;;;;5025286;28;20701;-88
2023/01/11 16:42:16;;;;;;;14.23;4.50;;;9.30;99.90;;;;;;5022731;28;20648;-83
2023/01/11 16:44:49;;;;;;;22.13;5.38;;;9.30;99.90;;;;;;5035758;28;20268;-84
2023/01/11 16:47:18;;;;;;;15.20;5.97;;;9.20;99.90;;;;;;5038901;28;20317;-83
2023/01/11 16:49:48;;;;;;;22.73;4.68;;;9.20;99.90;;;;;;5034380;28;20254;-84
2023/01/11 16:52:45;;;;;;;13.13;5.38;;;9.10;99.90;;;;;;5027075;28;20201;-82
2023/01/11 16:55:22;;;;;;;16.48;7.70;;;9.00;99.90;;;;;;5040421;28;20292;-83
2023/01/11 17:02:17;;;;;;;10.65;5.28;;;9.00;99.90;;;;;;4986390;28;20241;-86
2023/01/11 17:14:53;;;;;;;11.93;7.10;;;9.00;99.90;;;;;;4972289;28;20210;-86
2023/01/11 17:18:15;;;;;;;;;;;;;;;;;;;;;
2023/01/11 17:24:46;;;;;;;13.82;4.85;;;9.10;99.90;;;;;;4927042;29;20570;-84
2023/01/11 17:34:52;;;;;;;;;;;;;;;;;;;;;
2023/01/11 17:46:49;;;;;;;12.02;6.05;;;8.70;99.90;;;;;;5001564;28;20306;-84
2023/01/11 17:49:25;;;;;;;11.45;5.40;;;8.60;99.90;;;;;;5038236;28;20300;-82
2023/01/11 17:51:55;;;;;;;13.15;7.40;;;8.60;99.90;;;;;;5035022;28;20298;-85
2023/01/11 17:54:33;;;;;;;25.90;7.25;;;8.50;99.90;;;;;;5036025;28;20294;-85
2023/01/11 17:57:13;;;;;;;22.90;6.00;;;8.40;99.90;;;;;;5045763;28;20220;-84
2023/01/11 17:59:40;;;;;;;23.58;6.13;;;8.40;99.90;;;;;;5036927;28;20200;-85
2023/01/11 18:02:19;;;;;;;8.68;5.55;;;8.30;99.90;;;;;;5019485;28;20629;-86
2023/01/11 18:04:59;;;;;;;16.17;5.15;;;8.30;99.90;;;;;;5035224;28;20204;-85
2023/01/11 18:07:26;;;;;;;13.95;5.63;;;8.30;99.90;;;;;;5032859;28;20243;-84
2023/01/11 18:09:58;;;;;;;23.58;5.32;;;8.10;99.90;;;;;;5030092;28;20200;-85
2023/01/11 18:12:33;;;;;;;21.70;8.05;;;8.20;99.90;;;;;;5033674;28;20216;-84
2023/01/11 18:15:05;;;;;;;11.48;4.78;;;8.30;99.90;;;;;;5035751;28;20223;-83
2023/01/11 18:17:46;;;;;;;8.88;3.95;;;8.20;99.90;;;;;;5035381;28;20228;-84
2023/01/11 18:20:37;;;;;;;12.80;4.60;;;8.20;99.90;;;;;;5033447;28;20203;-85
2023/01/11 18:23:21;;;;;;;14.05;5.40;;;8.20;99.90;;;;;;5031941;28;20192;-86
2023/01/11 18:25:50;;;;;;;8.88;4.60;;;8.20;99.90;;;;;;5039634;28;20227;-85
2023/01/11 18:28:28;;;;;;;13.43;3.78;;;8.30;99.90;;;;;;5035247;28;20255;-85
2023/01/11 18:31:01;;;;;;;13.88;4.28;;;8.30;99.90;;;;;;5035181;28;20616;-85
2023/01/11 18:33:43;;;;;;;14.65;5.20;;;8.40;99.90;;;;;;5037786;28;20204;-83
2023/01/11 18:39:12;;;;;;;14.05;4.30;;;8.30;99.90;;;;;;5040956;28;20740;-85
2023/01/11 18:45:06;;;;;;;19.90;5.05;;;8.30;99.90;;;;;;5061761;28;20534;-85
2023/01/11 18:47:34;;;;;;;12.70;4.40;;;8.30;99.90;;;;;;5038892;28;20284;-85
2023/01/11 18:50:41;;;;;;;16.65;3.97;;;8.30;99.90;;;;;;5041460;28;20250;-86
2023/01/11 18:53:19;;;;;;;9.13;4.25;;;8.30;99.90;;;;;;5036647;28;20634;-84
2023/01/11 18:56:08;;;;;;;18.77;4.50;;;8.30;99.90;;;;;;5039154;28;20710;-85
2023/01/11 18:59:11;;;;;;;12.80;6.25;;;8.40;99.90;;;;;;5028210;28;20227;-86
2023/01/11 19:04:33;;;;;;;15.52;4.80;;;8.30;99.90;;;;;;5000247;28;20196;-84
2023/01/11 19:07:34;;;;;;;13.63;4.47;;;8.20;99.90;;;;;;5022864;28;20224;-84
2023/01/11 19:10:26;;;;;;;15.63;5.80;;;8.30;99.90;;;;;;5037691;28;20253;-87
2023/01/11 19:13:43;;;;;;;13.45;4.55;;;8.10;99.90;;;;;;5039957;28;20299;-86
2023/01/11 19:16:32;;;;;;;14.23;5.20;;;8.30;99.90;;;;;;5023906;28;20600;-87
2023/01/11 19:19:09;;;;;;;18.20;6.18;;;8.30;99.90;;;;;;5033015;28;20200;-86
2023/01/11 19:21:42;;;;;;;18.85;4.65;;;8.30;99.90;;;;;;5047249;28;20274;-85
2023/01/11 19:27:44;;;;;;;14.30;4.70;;;8.20;99.90;;;;;;5032931;28;20236;-86
2023/01/11 19:30:39;;;;;;;19.25;5.10;;;8.10;99.90;;;;;;5039969;28;20280;-84
2023/01/11 19:33:14;;;;;;;16.55;4.75;;;8.20;99.90;;;;;;5037035;28;20208;-86
2023/01/11 19:35:56;;;;;;;11.10;4.57;;;8.20;99.90;;;;;;5030655;28;20214;-85
2023/01/11 19:38:27;;;;;;;18.70;4.90;;;8.20;99.90;;;;;;5040666;28;20204;-86
2023/01/11 19:41:05;;;;;;;12.48;4.15;;;8.20;99.90;;;;;;5041124;28;20211;-83
2023/01/11 19:44:01;;;;;;;17.15;5.60;;;8.20;99.90;;;;;;5028282;28;20204;-83
2023/01/11 19:46:32;;;;;;;15.18;5.38;;;8.20;99.90;;;;;;5040354;28;20282;-84
2023/01/11 19:49:10;;;;;;;11.98;5.03;;;8.30;99.90;;;;;;5037635;28;20216;-85
2023/01/11 19:51:41;;;;;;;14.38;5.50;;;8.20;99.90;;;;;;5024850;28;20208;-83
2023/01/11 19:54:12;;;;;;;10.63;4.68;;;8.20;99.90;;;;;;5029001;28;20740;-86